Strona główna
METAR-TAF:

METAR-TAF

Lotnisko :

Port lotniczy Algier

Algier, Algieria

Szerokość geograficzna: 36-43N, Długość geograficzna: 003-15E, wysokość: 25 m

Aktualna obserwacja pogody

Raport powstał 35 minut temu, godzina 19:00 UTC
Wiatr 8 kt od wschodnio-północny wschód
Temperatura 25°C
Wilgotność 61%
Ciśnienie 1010 hPa
Widzialność 10 km lub więcej
Mało chmury na wysokości 2300 ft

METAR: DAAG 251900Z 06008KT 9999 FEW023 25/17 Q1010

czas: 20:35 (19:35 UTC)

Prognoza

Raport powstał 2 godziny i 35 minut temu, godzina 17:00 UTC
Prognoza ważna od 25 godzina 18 UTC do 26 godzina 18 UTC
Wiatr 12 kt od wschodnio-północny wschód
Widzialność 10 km lub więcej
Mało chmury na wysokości 2300 ft

TAF: DAAG 251700Z 2518/2618 06012KT 9999 FEW023

Obserwacja i prognoza pogody dla ponad 4000 lotnisk (raport METAR i TAF).

Dostępne stacje oznaczono żółtymi i czerwonymi punktami na mapie.

Najedź kursorem aby zobaczyć nazwę stacji.

Kliknij aby zobaczyć obserwacje i prognozy pogody.

Aby zmienić mapę: kliknij na zielony przycisk z czarnym krzyżykiem, aby powiększyć; na zielony przycisk z myślnikiem, aby pomniejszyć; na zielone strzałki, aby przejść do map sąsiednich.


METAR-TAF: